Time;durP1;ratioP1;P1;durP2;ratioP2;P2;SDS_P1;SDS_P2;PMS_P1;PMS_P2;Temp;Humidity;BMP_temperature;BMP_pressure;BME280_temperature;BME280_humidity;BME280_pressure;Samples;Min_cycle;Max_cycle;Signal;HPM_P1;HPM_P2
2022/06/01 00:00:19;;;;;;;;;1.00;1.00;;;;;;;;5105673;27;61838;-77
2022/06/01 00:02:45;;;;;;;;;0.00;0.00;;;;;;;;5105238;27;61812;-78
2022/06/01 00:05:10;;;;;;;;;2.00;1.00;;;;;;;;5105572;27;61867;-77
2022/06/01 00:07:35;;;;;;;;;1.00;1.00;;;;;;;;5085592;27;61826;-77
2022/06/01 00:10:01;;;;;;;;;1.00;0.00;;;;;;;;5074544;28;61775;-78
2022/06/01 00:12:29;;;;;;;;;0.00;0.00;;;;;;;;5064286;28;63003;-77
2022/06/01 00:14:54;;;;;;;;;0.00;0.00;;;;;;;;5064255;28;61793;-77
2022/06/01 00:17:21;;;;;;;;;0.75;0.75;;;;;;;;5067986;28;61894;-78
2022/06/01 00:19:46;;;;;;;;;0.75;0.75;;;;;;;;5083331;28;62109;-77
2022/06/01 00:22:11;;;;;;;;;0.50;0.50;;;;;;;;5083355;28;62777;-77
2022/06/01 00:24:38;;;;;;;;;1.00;1.00;;;;;;;;5084877;28;61867;-77
2022/06/01 00:27:04;;;;;;;;;0.50;0.50;;;;;;;;5085045;28;62139;-77
2022/06/01 00:29:29;;;;;;;;;0.25;0.25;;;;;;;;5085446;28;61876;-77
2022/06/01 00:31:54;;;;;;;;;1.00;1.00;;;;;;;;5084210;28;61947;-77
2022/06/01 00:34:20;;;;;;;;;1.00;1.00;;;;;;;;5085134;28;62181;-77
2022/06/01 00:36:45;;;;;;;;;4.50;1.00;;;;;;;;5085630;28;62129;-78
2022/06/01 00:39:11;;;;;;;;;1.00;1.00;;;;;;;;5084548;28;61623;-78
2022/06/01 00:41:36;;;;;;;;;1.00;1.00;;;;;;;;5065996;28;64869;-78
2022/06/01 00:44:02;;;;;;;;;2.00;2.00;;;;;;;;5084573;28;61856;-78
2022/06/01 00:46:28;;;;;;;;;2.00;2.00;;;;;;;;5085054;28;61779;-77
2022/06/01 00:48:57;;;;;;;;;3.00;2.00;;;;;;;;5084798;28;61859;-78
2022/06/01 00:51:24;;;;;;;;;3.25;2.00;;;;;;;;5084011;28;62092;-78
2022/06/01 00:53:51;;;;;;;;;3.00;1.00;;;;;;;;5084126;28;61841;-77
2022/06/01 00:56:19;;;;;;;;;1.00;1.00;;;;;;;;5084232;28;61773;-78
2022/06/01 00:58:45;;;;;;;;;3.00;1.00;;;;;;;;5084803;28;62114;-78
2022/06/01 01:01:13;;;;;;;;;1.25;1.00;;;;;;;;5083838;28;61973;-78
2022/06/01 01:03:40;;;;;;;;;1.00;1.00;;;;;;;;5084662;28;61692;-78
2022/06/01 01:06:32;;;;;;;;;2.00;2.00;;;;;;;;5065637;28;61921;-78
2022/06/01 01:08:58;;;;;;;;;0.50;0.50;;;;;;;;5048540;28;62173;-77
2022/06/01 01:11:32;;;;;;;;;1.75;1.50;;;;;;;;5062464;28;61849;-78
2022/06/01 01:13:58;;;;;;;;;1.00;1.00;;;;;;;;5064102;28;61770;-78
2022/06/01 01:16:24;;;;;;;;;1.00;1.00;;;;;;;;5063930;28;62168;-78
2022/06/01 01:18:51;;;;;;;;;3.00;0.00;;;;;;;;5079464;28;61878;-78
2022/06/01 01:21:19;;;;;;;;;3.25;2.00;;;;;;;;5064925;28;63654;-78
2022/06/01 01:23:59;;;;;;;;;3.00;1.00;;;;;;;;5082790;28;61991;-78
2022/06/01 01:26:25;;;;;;;;;1.50;1.50;;;;;;;;5065478;28;61742;-78
2022/06/01 01:28:50;;;;;;;;;4.00;1.50;;;;;;;;5084295;28;61709;-78
2022/06/01 01:31:20;;;;;;;;;2.50;2.50;;;;;;;;5083425;28;61969;-78
2022/06/01 01:33:47;;;;;;;;;1.25;1.25;;;;;;;;5083784;28;62534;-78
2022/06/01 01:36:14;;;;;;;;;1.00;1.00;;;;;;;;5081644;28;61972;-78
2022/06/01 01:38:45;;;;;;;;;2.00;2.00;;;;;;;;5083671;28;61730;-78
2022/06/01 01:41:13;;;;;;;;;1.00;1.00;;;;;;;;5083240;28;62046;-78
2022/06/01 01:43:46;;;;;;;;;3.50;2.50;;;;;;;;5065755;28;61978;-78
2022/06/01 01:46:11;;;;;;;;;1.00;1.00;;;;;;;;5065343;28;62008;-77
2022/06/01 01:48:37;;;;;;;;;2.00;1.00;;;;;;;;5084309;28;61796;-78
2022/06/01 01:51:02;;;;;;;;;1.00;1.00;;;;;;;;5082717;28;63046;-78
2022/06/01 01:53:29;;;;;;;;;2.00;2.00;;;;;;;;5083578;28;61971;-78
2022/06/01 01:56:14;;;;;;;;;1.50;1.00;;;;;;;;5065441;28;61763;-78
2022/06/01 01:59:11;;;;;;;;;3.00;2.25;;;;;;;;5084061;28;61969;-78
2022/06/01 02:01:41;;;;;;;;;2.00;2.00;;;;;;;;5048449;28;61978;-78
2022/06/01 02:07:11;;;;;;;;;3.50;2.00;;;;;;;;5082859;28;61813;-77
2022/06/01 02:15:05;;;;;;;;;1.00;1.00;;;;;;;;5083097;28;62098;-78
2022/06/01 02:17:39;;;;;;;;;4.00;1.75;;;;;;;;5087841;27;61979;-78
2022/06/01 02:20:11;;;;;;;;;0.00;0.00;;;;;;;;5103715;27;62075;-77
2022/06/01 02:22:38;;;;;;;;;1.00;1.00;;;;;;;;5102720;27;62558;-78
2022/06/01 02:25:04;;;;;;;;;1.25;1.25;;;;;;;;5084890;27;62031;-77
2022/06/01 02:27:29;;;;;;;;;1.00;1.00;;;;;;;;5102283;27;61887;-78
2022/06/01 02:29:57;;;;;;;;;0.75;0.75;;;;;;;;5103828;27;62011;-78
2022/06/01 02:32:25;;;;;;;;;1.00;1.00;;;;;;;;5101203;27;64886;-78
2022/06/01 02:34:52;;;;;;;;;2.00;1.00;;;;;;;;5084235;27;61953;-77
2022/06/01 02:37:17;;;;;;;;;1.25;1.25;;;;;;;;5102918;27;62039;-78
2022/06/01 02:39:46;;;;;;;;;1.00;1.00;;;;;;;;5091093;27;62085;-77
2022/06/01 02:42:28;;;;;;;;;2.50;2.50;;;;;;;;5082540;28;62060;-78
2022/06/01 02:44:54;;;;;;;;;1.00;1.00;;;;;;;;5083075;27;62254;-78
2022/06/01 02:47:19;;;;;;;;;2.25;1.00;;;;;;;;5082882;27;61876;-78
2022/06/01 02:49:44;;;;;;;;;2.25;2.25;;;;;;;;5081431;28;61884;-77
2022/06/01 02:52:10;;;;;;;;;2.00;2.00;;;;;;;;5082056;28;61781;-78
2022/06/01 02:54:35;;;;;;;;;1.25;1.00;;;;;;;;5082524;28;62041;-78
2022/06/01 02:57:00;;;;;;;;;2.00;2.00;;;;;;;;5082746;28;61854;-78
2022/06/01 02:59:26;;;;;;;;;1.50;1.50;;;;;;;;5082733;28;61831;-78
2022/06/01 03:01:52;;;;;;;;;2.00;2.00;;;;;;;;5080991;28;63753;-78
2022/06/01 03:04:17;;;;;;;;;2.00;1.25;;;;;;;;5082346;27;61796;-78
2022/06/01 03:06:42;;;;;;;;;2.00;2.00;;;;;;;;5082313;27;61715;-77
2022/06/01 03:09:08;;;;;;;;;2.75;2.75;;;;;;;;5082145;28;62054;-77
2022/06/01 03:11:36;;;;;;;;;2.00;2.00;;;;;;;;5081769;28;61730;-77
2022/06/01 03:14:01;;;;;;;;;2.50;2.50;;;;;;;;5082415;28;61687;-78
2022/06/01 03:16:26;;;;;;;;;3.25;2.75;;;;;;;;5082356;28;61952;-78
2022/06/01 03:18:51;;;;;;;;;3.50;3.00;;;;;;;;5097776;27;61988;-78
2022/06/01 03:21:17;;;;;;;;;2.75;2.00;;;;;;;;5101915;27;61730;-77
2022/06/01 03:23:42;;;;;;;;;4.50;2.75;;;;;;;;5102539;27;61705;-78
2022/06/01 03:26:07;;;;;;;;;2.50;2.50;;;;;;;;5102804;27;61712;-78
2022/06/01 03:28:33;;;;;;;;;2.75;1.00;;;;;;;;5102753;27;61784;-78
2022/06/01 03:30:58;;;;;;;;;2.00;1.50;;;;;;;;5101912;27;62850;-77
2022/06/01 03:33:24;;;;;;;;;4.25;1.25;;;;;;;;5101712;27;61871;-78
2022/06/01 03:35:49;;;;;;;;;2.75;2.00;;;;;;;;5102382;27;61748;-78
2022/06/01 03:38:15;;;;;;;;;3.50;2.50;;;;;;;;5102413;27;61937;-78
2022/06/01 03:40:42;;;;;;;;;3.50;2.00;;;;;;;;5101707;27;61830;-77
2022/06/01 03:43:09;;;;;;;;;3.00;3.00;;;;;;;;5102650;27;61906;-78
2022/06/01 03:48:19;;;;;;;;;3.50;1.00;;;;;;;;5102597;27;61883;-78
2022/06/01 03:50:44;;;;;;;;;2.75;1.00;;;;;;;;5101280;27;61870;-78
2022/06/01 03:53:09;;;;;;;;;2.00;1.75;;;;;;;;5102259;27;61931;-77
2022/06/01 03:55:36;;;;;;;;;1.00;1.00;;;;;;;;5100966;27;61954;-77
2022/06/01 03:58:01;;;;;;;;;7.00;3.50;;;;;;;;5102607;27;62039;-77
2022/06/01 04:00:26;;;;;;;;;2.00;2.00;;;;;;;;5101549;27;62145;-78
2022/06/01 04:02:52;;;;;;;;;4.00;2.00;;;;;;;;5100646;27;62193;-77
2022/06/01 04:05:18;;;;;;;;;3.00;3.00;;;;;;;;5083204;27;61890;-77
2022/06/01 04:07:43;;;;;;;;;5.00;2.00;;;;;;;;5099302;27;62145;-77
2022/06/01 04:10:09;;;;;;;;;4.00;1.00;;;;;;;;5073495;28;63554;-77
2022/06/01 04:12:34;;;;;;;;;2.50;2.50;;;;;;;;5081746;28;62326;-79
2022/06/01 04:15:00;;;;;;;;;3.00;3.00;;;;;;;;5081725;28;62093;-77
2022/06/01 04:17:25;;;;;;;;;2.00;2.00;;;;;;;;5085514;27;61698;-77
2022/06/01 04:19:51;;;;;;;;;4.00;2.00;;;;;;;;5098830;27;64266;-77
2022/06/01 04:22:16;;;;;;;;;3.00;3.00;;;;;;;;5101567;27;61939;-77
2022/06/01 04:24:42;;;;;;;;;3.50;2.00;;;;;;;;5101854;27;62027;-77
2022/06/01 04:27:07;;;;;;;;;2.00;2.00;;;;;;;;5102491;27;61753;-77
2022/06/01 04:29:33;;;;;;;;;4.50;3.25;;;;;;;;5101280;27;61889;-77
2022/06/01 04:32:07;;;;;;;;;2.00;1.00;;;;;;;;5101858;27;61936;-77
2022/06/01 04:34:34;;;;;;;;;1.00;1.00;;;;;;;;5101835;27;61789;-77
2022/06/01 04:37:01;;;;;;;;;4.50;4.00;;;;;;;;5101896;27;61894;-77
2022/06/01 04:39:27;;;;;;;;;5.00;4.75;;;;;;;;5090760;27;62150;-77
2022/06/01 04:41:52;;;;;;;;;3.50;3.50;;;;;;;;5081201;27;61727;-77
2022/06/01 04:44:19;;;;;;;;;4.25;4.25;;;;;;;;5079947;28;61924;-79
2022/06/01 04:46:45;;;;;;;;;4.75;4.75;;;;;;;;5082918;27;61819;-80
2022/06/01 04:49:10;;;;;;;;;4.50;3.00;;;;;;;;5084288;28;62140;-77
2022/06/01 04:51:36;;;;;;;;;2.25;2.25;;;;;;;;5084318;28;61959;-77
2022/06/01 04:54:01;;;;;;;;;5.00;4.00;;;;;;;;5083297;28;62038;-77
2022/06/01 04:56:27;;;;;;;;;4.00;4.00;;;;;;;;5084802;27;61794;-77
2022/06/01 04:58:52;;;;;;;;;3.00;2.75;;;;;;;;5084475;28;62444;-77
2022/06/01 05:01:18;;;;;;;;;2.75;2.75;;;;;;;;5085187;27;61740;-77
2022/06/01 05:03:43;;;;;;;;;2.50;2.50;;;;;;;;5100221;27;61975;-77
2022/06/01 05:06:08;;;;;;;;;5.00;5.00;;;;;;;;5082856;28;62047;-79
2022/06/01 05:08:34;;;;;;;;;2.50;2.00;;;;;;;;5092624;27;61789;-82
2022/06/01 05:10:59;;;;;;;;;2.75;2.00;;;;;;;;5104518;27;61736;-77
2022/06/01 05:13:25;;;;;;;;;7.75;2.50;;;;;;;;5103679;27;61704;-81
2022/06/01 05:15:55;;;;;;;;;2.50;2.50;;;;;;;;5104527;27;61673;-77
2022/06/01 05:18:20;;;;;;;;;2.50;2.50;;;;;;;;5099185;27;61913;-82
2022/06/01 05:20:46;;;;;;;;;6.50;5.00;;;;;;;;5102871;27;62037;-81
2022/06/01 05:23:11;;;;;;;;;2.75;2.75;;;;;;;;5104561;27;61895;-83
2022/06/01 05:25:37;;;;;;;;;1.00;1.00;;;;;;;;5104087;27;62111;-85
2022/06/01 05:28:02;;;;;;;;;4.00;2.00;;;;;;;;5085744;27;64908;-83
2022/06/01 05:30:27;;;;;;;;;4.25;4.25;;;;;;;;5085754;27;62461;-81
2022/06/01 05:32:53;;;;;;;;;3.00;3.00;;;;;;;;5104332;27;62121;-81
2022/06/01 05:35:18;;;;;;;;;3.75;3.00;;;;;;;;5104098;27;61900;-80
2022/06/01 05:37:43;;;;;;;;;2.25;2.25;;;;;;;;5103835;27;62064;-83
2022/06/01 05:40:09;;;;;;;;;5.50;3.25;;;;;;;;5103639;27;61814;-83
2022/06/01 05:42:34;;;;;;;;;4.00;3.00;;;;;;;;5091312;27;62037;-83
2022/06/01 05:44:59;;;;;;;;;2.25;2.00;;;;;;;;5102302;27;62100;-78
2022/06/01 05:47:25;;;;;;;;;5.75;2.25;;;;;;;;5102238;27;63058;-74
2022/06/01 05:49:50;;;;;;;;;2.75;2.75;;;;;;;;5103845;27;61954;-72
2022/06/01 05:52:18;;;;;;;;;2.00;2.00;;;;;;;;5102427;27;62091;-72
2022/06/01 05:54:46;;;;;;;;;4.00;2.00;;;;;;;;5103938;27;62159;-73
2022/06/01 05:57:12;;;;;;;;;2.75;2.75;;;;;;;;5102884;27;61910;-74
2022/06/01 05:59:37;;;;;;;;;2.75;2.00;;;;;;;;5103454;27;61991;-74
2022/06/01 06:02:03;;;;;;;;;4.25;2.50;;;;;;;;5103880;27;61778;-74
2022/06/01 06:04:28;;;;;;;;;3.25;3.25;;;;;;;;5104142;27;61934;-75
2022/06/01 06:06:53;;;;;;;;;2.25;1.75;;;;;;;;5102758;27;62034;-75
2022/06/01 06:09:24;;;;;;;;;3.00;2.00;;;;;;;;5103454;27;62026;-76
2022/06/01 06:11:49;;;;;;;;;3.00;1.50;;;;;;;;5103710;27;61745;-76
2022/06/01 06:14:15;;;;;;;;;3.25;3.25;;;;;;;;5102052;27;62163;-76
2022/06/01 06:16:42;;;;;;;;;4.75;2.50;;;;;;;;5102997;27;62618;-78
2022/06/01 06:19:09;;;;;;;;;3.75;3.75;;;;;;;;5080110;27;61838;-76
2022/06/01 06:21:35;;;;;;;;;2.00;2.00;;;;;;;;5085031;27;61932;-79
2022/06/01 06:24:00;;;;;;;;;2.00;2.00;;;;;;;;5103707;27;62402;-76
2022/06/01 06:26:25;;;;;;;;;5.75;3.50;;;;;;;;5103103;27;62660;-74
2022/06/01 06:28:50;;;;;;;;;2.00;1.25;;;;;;;;5100848;27;61962;-75
2022/06/01 06:31:16;;;;;;;;;1.00;1.00;;;;;;;;5103026;27;61635;-76
2022/06/01 06:33:42;;;;;;;;;1.00;1.00;;;;;;;;5103116;27;62192;-78
2022/06/01 06:36:08;;;;;;;;;3.25;0.25;;;;;;;;5100718;27;63524;-74
2022/06/01 06:38:34;;;;;;;;;1.50;1.25;;;;;;;;5100542;27;62119;-73
2022/06/01 06:41:00;;;;;;;;;1.75;1.00;;;;;;;;5082822;27;61773;-73
2022/06/01 06:43:26;;;;;;;;;5.00;1.00;;;;;;;;5083084;27;61704;-74
2022/06/01 06:45:56;;;;;;;;;0.75;0.75;;;;;;;;5097006;27;61800;-74
2022/06/01 06:48:21;;;;;;;;;2.25;1.00;;;;;;;;5102846;27;61755;-73
2022/06/01 06:50:46;;;;;;;;;1.75;1.75;;;;;;;;5101226;27;62832;-75
2022/06/01 06:53:12;;;;;;;;;4.00;1.00;;;;;;;;5102204;27;61962;-78
2022/06/01 06:55:37;;;;;;;;;2.00;2.00;;;;;;;;5101264;27;61978;-78
2022/06/01 06:58:02;;;;;;;;;1.75;1.25;;;;;;;;5101964;27;61706;-78
2022/06/01 07:00:27;;;;;;;;;1.50;1.50;;;;;;;;5102315;27;61859;-74
2022/06/01 07:02:53;;;;;;;;;2.00;2.00;;;;;;;;5103030;27;61918;-73
2022/06/01 07:08:03;;;;;;;;;2.00;2.00;;;;;;;;5098185;27;61677;-75
2022/06/01 07:10:28;;;;;;;;;3.50;3.00;;;;;;;;5101718;27;61865;-75
2022/06/01 07:12:53;;;;;;;;;5.00;4.75;;;;;;;;5102836;27;61831;-74
2022/06/01 07:15:18;;;;;;;;;5.75;4.00;;;;;;;;5100291;27;63582;-74
2022/06/01 07:17:44;;;;;;;;;2.00;2.00;;;;;;;;5099698;27;62686;-73
2022/06/01 07:20:09;;;;;;;;;2.00;2.00;;;;;;;;5102161;27;61875;-75
2022/06/01 07:22:35;;;;;;;;;3.50;2.00;;;;;;;;5102423;27;61984;-74
2022/06/01 07:25:00;;;;;;;;;4.75;3.00;;;;;;;;5101898;27;61965;-74
2022/06/01 07:27:25;;;;;;;;;2.00;2.00;;;;;;;;5102922;27;61835;-74
2022/06/01 07:29:51;;;;;;;;;2.00;2.00;;;;;;;;5103040;27;61931;-74
2022/06/01 07:32:16;;;;;;;;;1.00;1.00;;;;;;;;5101062;27;62003;-74
2022/06/01 07:34:41;;;;;;;;;1.00;1.00;;;;;;;;5102376;27;61950;-74
2022/06/01 07:45:18;;;;;;;;;4.75;2.00;;;;;;;;5101699;27;62404;-73
2022/06/01 07:47:44;;;;;;;;;3.00;2.00;;;;;;;;5102225;27;61640;-74
2022/06/01 07:50:09;;;;;;;;;0.00;0.00;;;;;;;;5101825;27;61972;-73
2022/06/01 07:52:35;;;;;;;;;1.75;1.75;;;;;;;;5082041;27;61952;-74
2022/06/01 07:55:00;;;;;;;;;1.00;1.00;;;;;;;;5100716;27;62637;-74
2022/06/01 07:57:25;;;;;;;;;4.00;2.25;;;;;;;;5100818;27;61862;-74
2022/06/01 07:59:50;;;;;;;;;1.25;1.25;;;;;;;;5101248;27;61984;-74
2022/06/01 08:02:16;;;;;;;;;1.25;1.25;;;;;;;;5100937;27;61895;-73
2022/06/01 08:04:41;;;;;;;;;0.25;0.25;;;;;;;;5098999;27;64248;-74
2022/06/01 08:07:06;;;;;;;;;2.00;1.00;;;;;;;;5099734;27;61877;-73
2022/06/01 08:09:32;;;;;;;;;0.25;0.25;;;;;;;;5099134;27;61947;-73
2022/06/01 08:15:01;;;;;;;;;2.00;1.00;;;;;;;;5055693;28;62392;-73
2022/06/01 08:17:26;;;;;;;;;1.00;1.00;;;;;;;;5056730;28;62094;-73
2022/06/01 08:19:51;;;;;;;;;1.00;1.00;;;;;;;;5057389;28;62088;-73
2022/06/01 08:22:17;;;;;;;;;0.00;0.00;;;;;;;;5060465;28;61880;-73
2022/06/01 08:24:42;;;;;;;;;1.00;1.00;;;;;;;;5040216;28;65109;-73
2022/06/01 08:27:08;;;;;;;;;0.75;0.75;;;;;;;;5060499;28;62009;-73
2022/06/01 08:29:34;;;;;;;;;2.00;1.00;;;;;;;;5061111;28;61943;-73
2022/06/01 08:32:00;;;;;;;;;0.50;0.00;;;;;;;;5060488;28;62075;-73
2022/06/01 08:34:25;;;;;;;;;0.25;0.25;;;;;;;;5034170;28;63636;-74
2022/06/01 08:36:51;;;;;;;;;2.00;2.00;;;;;;;;5058760;28;62072;-72
2022/06/01 08:39:16;;;;;;;;;2.50;1.00;;;;;;;;5060074;28;61951;-73
2022/06/01 08:41:41;;;;;;;;;1.50;1.00;;;;;;;;5060987;28;62092;-72
2022/06/01 08:44:14;;;;;;;;;1.50;1.00;;;;;;;;5059368;28;63016;-72
2022/06/01 08:46:39;;;;;;;;;1.00;1.00;;;;;;;;5097006;27;61879;-74
2022/06/01 08:49:09;;;;;;;;;2.00;0.50;;;;;;;;5117275;27;62123;-74
2022/06/01 08:51:34;;;;;;;;;1.00;1.00;;;;;;;;5125495;27;62066;-73
2022/06/01 08:54:00;;;;;;;;;2.00;1.00;;;;;;;;5122312;27;61997;-73
2022/06/01 08:56:29;;;;;;;;;1.50;0.50;;;;;;;;5103254;27;62146;-74
2022/06/01 08:58:54;;;;;;;;;0.75;0.75;;;;;;;;5104882;27;61862;-78
2022/06/01 09:01:25;;;;;;;;;1.00;1.00;;;;;;;;5104153;27;62075;-74
2022/06/01 09:03:53;;;;;;;;;2.00;2.00;;;;;;;;5085795;27;63874;-74
2022/06/01 09:06:25;;;;;;;;;4.00;1.00;;;;;;;;5103564;27;61879;-75
2022/06/01 09:08:54;;;;;;;;;2.00;1.00;;;;;;;;5100994;27;61940;-75
2022/06/01 09:11:28;;;;;;;;;1.75;1.00;;;;;;;;5083857;28;62189;-74
2022/06/01 09:14:00;;;;;;;;;1.00;1.00;;;;;;;;5083067;28;61768;-75
2022/06/01 09:16:25;;;;;;;;;1.00;1.00;;;;;;;;5080963;28;61777;-74
2022/06/01 09:18:52;;;;;;;;;0.75;0.75;;;;;;;;5090443;27;61820;-74
2022/06/01 09:24:05;;;;;;;;;2.00;1.00;;;;;;;;5093863;27;62314;-74
2022/06/01 09:26:30;;;;;;;;;0.00;0.00;;;;;;;;5091735;27;61750;-75
2022/06/01 09:28:57;;;;;;;;;0.00;0.00;;;;;;;;5074823;27;61979;-74
2022/06/01 09:31:41;;;;;;;;;1.50;0.50;;;;;;;;5093085;27;62011;-75
2022/06/01 09:34:15;;;;;;;;;1.00;1.00;;;;;;;;5072122;27;65061;-75
2022/06/01 09:37:10;;;;;;;;;1.00;1.00;;;;;;;;5092499;27;61921;-74
2022/06/01 09:39:37;;;;;;;;;0.00;0.00;;;;;;;;5050402;28;62003;-79
2022/06/01 09:42:25;;;;;;;;;1.00;1.00;;;;;;;;5083815;28;61704;-75
2022/06/01 09:44:51;;;;;;;;;1.00;1.00;;;;;;;;5064625;28;65049;-74
2022/06/01 09:47:28;;;;;;;;;1.75;0.50;;;;;;;;5083291;28;61983;-74
2022/06/01 09:49:54;;;;;;;;;0.00;0.00;;;;;;;;5083255;28;61848;-75
2022/06/01 09:52:31;;;;;;;;;0.75;0.75;;;;;;;;5083427;28;61924;-76
2022/06/01 09:55:05;;;;;;;;;0.25;0.25;;;;;;;;5082753;28;61694;-75
2022/06/01 09:57:35;;;;;;;;;2.00;1.00;;;;;;;;5082868;28;61882;-75
2022/06/01 10:08:21;;;;;;;;;0.00;0.00;;;;;;;;5093707;27;61788;-76
2022/06/01 10:10:58;;;;;;;;;3.00;1.25;;;;;;;;5094180;27;62114;-76
2022/06/01 10:13:36;;;;;;;;;2.50;0.75;;;;;;;;5096031;27;61737;-77
2022/06/01 10:16:20;;;;;;;;;0.00;0.00;;;;;;;;5098815;27;61833;-77
2022/06/01 10:18:46;;;;;;;;;1.00;1.00;;;;;;;;5081207;27;61929;-76
2022/06/01 10:21:13;;;;;;;;;0.75;0.75;;;;;;;;5103433;27;62120;-76
2022/06/01 10:23:39;;;;;;;;;0.25;0.25;;;;;;;;5103900;27;61862;-76
2022/06/01 10:26:09;;;;;;;;;0.25;0.25;;;;;;;;5103187;27;61769;-76
2022/06/01 10:28:39;;;;;;;;;0.00;0.00;;;;;;;;5103585;27;61916;-75
2022/06/01 10:31:07;;;;;;;;;0.00;0.00;;;;;;;;5085156;27;61990;-75
2022/06/01 10:33:35;;;;;;;;;1.00;1.00;;;;;;;;5103275;27;61924;-75
2022/06/01 10:36:12;;;;;;;;;1.00;0.00;;;;;;;;5084198;27;64024;-75
2022/06/01 10:38:46;;;;;;;;;0.00;0.00;;;;;;;;5099268;27;61924;-77
2022/06/01 10:41:19;;;;;;;;;0.50;0.50;;;;;;;;5100326;27;61974;-75
2022/06/01 10:44:04;;;;;;;;;1.50;0.00;;;;;;;;5103231;27;62142;-75
2022/06/01 10:46:30;;;;;;;;;0.00;0.00;;;;;;;;5102282;27;62163;-74
2022/06/01 10:49:04;;;;;;;;;0.00;0.00;;;;;;;;5075135;27;62351;-72
2022/06/01 10:51:32;;;;;;;;;2.25;0.00;;;;;;;;5099998;27;61880;-75
2022/06/01 10:54:00;;;;;;;;;1.00;1.00;;;;;;;;5099662;27;63096;-75
2022/06/01 10:56:26;;;;;;;;;15.00;5.75;;;;;;;;5099443;27;62621;-88
2022/06/01 10:58:55;;;;;;;;;0.00;0.00;;;;;;;;5102192;27;61972;-88
2022/06/01 11:01:40;;;;;;;;;0.50;0.50;;;;;;;;5082716;27;62176;-86
2022/06/01 11:04:05;;;;;;;;;0.00;0.00;;;;;;;;5098262;27;61829;-86
2022/06/01 11:06:37;;;;;;;;;0.75;0.75;;;;;;;;5099894;27;62601;-89
2022/06/01 11:09:02;;;;;;;;;0.00;0.00;;;;;;;;5100480;27;61785;-89
2022/06/01 11:11:53;;;;;;;;;0.50;0.50;;;;;;;;5084056;27;61865;-89
2022/06/01 11:14:31;;;;;;;;;1.00;1.00;;;;;;;;5101325;27;61888;-76
2022/06/01 11:16:58;;;;;;;;;0.75;0.75;;;;;;;;5097902;27;61919;-76
2022/06/01 11:19:23;;;;;;;;;0.00;0.00;;;;;;;;5099466;27;62016;-75
2022/06/01 11:22:10;;;;;;;;;0.00;0.00;;;;;;;;5100532;27;61825;-76
2022/06/01 11:24:36;;;;;;;;;2.00;0.00;;;;;;;;5080779;27;62036;-76
2022/06/01 11:27:23;;;;;;;;;0.00;0.00;;;;;;;;5083137;27;65100;-76
2022/06/01 11:30:04;;;;;;;;;0.00;0.00;;;;;;;;5101866;27;61996;-77
2022/06/01 11:32:35;;;;;;;;;0.00;0.00;;;;;;;;5082362;27;62181;-77
2022/06/01 11:35:05;;;;;;;;;1.00;1.00;;;;;;;;5079410;27;61806;-77
2022/06/01 11:37:35;;;;;;;;;1.00;0.00;;;;;;;;5100581;27;61875;-77
2022/06/01 11:40:11;;;;;;;;;1.50;0.75;;;;;;;;5101525;27;61854;-77
2022/06/01 11:42:43;;;;;;;;;0.25;0.00;;;;;;;;5078577;27;61786;-77
2022/06/01 11:45:08;;;;;;;;;0.00;0.00;;;;;;;;5101805;27;61938;-77
2022/06/01 11:48:03;;;;;;;;;1.50;0.00;;;;;;;;5100469;27;61862;-77
2022/06/01 11:51:07;;;;;;;;;0.00;0.00;;;;;;;;5070779;27;62087;-78
2022/06/01 11:53:42;;;;;;;;;0.00;0.00;;;;;;;;4991397;28;62178;-77
2022/06/01 11:56:15;;;;;;;;;0.00;0.00;;;;;;;;4994099;28;61857;-75
2022/06/01 11:58:54;;;;;;;;;0.00;0.00;;;;;;;;4992950;28;61891;-77
2022/06/01 12:01:38;;;;;;;;;0.67;0.67;;;;;;;;4996646;28;61824;-78
2022/06/01 12:04:36;;;;;;;;;0.00;0.00;;;;;;;;4995321;28;61895;-79
2022/06/01 12:07:21;;;;;;;;;0.67;0.67;;;;;;;;4952572;28;61950;-79
2022/06/01 12:09:49;;;;;;;;;3.00;0.67;;;;;;;;5001501;28;62143;-79
2022/06/01 12:12:23;;;;;;;;;1.00;1.00;;;;;;;;4998586;28;62111;-79
2022/06/01 12:14:56;;;;;;;;;1.00;0.00;;;;;;;;5001645;28;61957;-79
2022/06/01 12:17:27;;;;;;;;;0.00;0.00;;;;;;;;4981518;28;61782;-79
2022/06/01 12:20:13;;;;;;;;;0.00;0.00;;;;;;;;5000808;28;61873;-79
2022/06/01 12:28:45;;;;;;;;;0.00;0.00;;;;;;;;5085229;28;61816;-79
2022/06/01 12:31:14;;;;;;;;;0.33;0.33;;;;;;;;5076786;28;63404;-79
2022/06/01 12:33:57;;;;;;;;;1.00;1.00;;;;;;;;5084975;28;61835;-78
2022/06/01 12:36:23;;;;;;;;;0.00;0.00;;;;;;;;5066009;28;61988;-79
2022/06/01 12:38:53;;;;;;;;;2.00;1.00;;;;;;;;5085170;27;61894;-79
2022/06/01 12:41:21;;;;;;;;;0.00;0.00;;;;;;;;5086156;27;64854;-79
2022/06/01 12:43:50;;;;;;;;;0.00;0.00;;;;;;;;5105111;27;62003;-79
2022/06/01 12:46:19;;;;;;;;;2.00;0.00;;;;;;;;5104473;27;61918;-79
2022/06/01 12:48:45;;;;;;;;;0.00;0.00;;;;;;;;5087218;27;61783;-79
2022/06/01 12:51:10;;;;;;;;;0.00;0.00;;;;;;;;5103549;27;62030;-79
2022/06/01 12:53:41;;;;;;;;;0.00;0.00;;;;;;;;5105159;27;61797;-79
2022/06/01 12:56:14;;;;;;;;;0.00;0.00;;;;;;;;5091394;27;61710;-79
2022/06/01 12:58:40;;;;;;;;;0.00;0.00;;;;;;;;5104952;27;62156;-79
2022/06/01 13:01:06;;;;;;;;;0.00;0.00;;;;;;;;5085205;27;62053;-79
2022/06/01 13:03:34;;;;;;;;;1.00;0.00;;;;;;;;5105265;27;61813;-79
2022/06/01 13:06:08;;;;;;;;;1.00;1.00;;;;;;;;5104030;27;61819;-79
2022/06/01 13:08:37;;;;;;;;;0.00;0.00;;;;;;;;5104076;27;61618;-79
2022/06/01 13:11:15;;;;;;;;;0.00;0.00;;;;;;;;5085129;27;62081;-79
2022/06/01 13:13:42;;;;;;;;;0.00;0.00;;;;;;;;5104512;27;61690;-79
2022/06/01 13:16:07;;;;;;;;;0.00;0.00;;;;;;;;5104601;27;61686;-79
2022/06/01 13:18:35;;;;;;;;;1.00;1.00;;;;;;;;5086075;27;61666;-79
2022/06/01 13:21:09;;;;;;;;;1.00;0.00;;;;;;;;5103160;27;62672;-79
2022/06/01 13:23:38;;;;;;;;;1.33;0.00;;;;;;;;5085340;27;61815;-79
2022/06/01 13:26:04;;;;;;;;;1.00;0.00;;;;;;;;5085893;27;62059;-79
2022/06/01 13:28:37;;;;;;;;;0.00;0.00;;;;;;;;5104607;27;61843;-79
2022/06/01 13:31:02;;;;;;;;;0.00;0.00;;;;;;;;5103533;27;61941;-80
2022/06/01 13:33:36;;;;;;;;;0.00;0.00;;;;;;;;5085950;27;61868;-79
2022/06/01 13:36:13;;;;;;;;;0.33;0.33;;;;;;;;5103376;27;61679;-80
2022/06/01 13:38:39;;;;;;;;;0.33;0.33;;;;;;;;5085905;27;61887;-80
2022/06/01 13:41:12;;;;;;;;;0.00;0.00;;;;;;;;5084141;27;61787;-77
2022/06/01 13:43:42;;;;;;;;;0.00;0.00;;;;;;;;5099316;27;61971;-77
2022/06/01 13:46:10;;;;;;;;;0.00;0.00;;;;;;;;5092855;27;61770;-76
2022/06/01 13:48:40;;;;;;;;;0.00;0.00;;;;;;;;5104382;27;62239;-76
2022/06/01 13:51:22;;;;;;;;;0.00;0.00;;;;;;;;5084565;27;63924;-76
2022/06/01 13:53:50;;;;;;;;;0.67;0.67;;;;;;;;5103920;27;61645;-76
2022/06/01 13:56:19;;;;;;;;;0.00;0.00;;;;;;;;5103176;27;61823;-77
2022/06/01 13:58:53;;;;;;;;;0.00;0.00;;;;;;;;5082387;27;61708;-77
2022/06/01 14:01:31;;;;;;;;;0.00;0.00;;;;;;;;5102984;27;61760;-77
2022/06/01 14:04:00;;;;;;;;;0.00;0.00;;;;;;;;5093318;27;61699;-77
2022/06/01 14:06:30;;;;;;;;;0.00;0.00;;;;;;;;5103561;27;61956;-76
2022/06/01 14:08:56;;;;;;;;;1.00;0.00;;;;;;;;5099552;27;61841;-77
2022/06/01 14:11:26;;;;;;;;;0.33;0.33;;;;;;;;5102168;27;61794;-76
2022/06/01 14:13:53;;;;;;;;;0.00;0.00;;;;;;;;5103918;27;61749;-77
2022/06/01 14:16:19;;;;;;;;;1.67;0.67;;;;;;;;5103560;27;61753;-77
2022/06/01 14:18:53;;;;;;;;;0.33;0.33;;;;;;;;5103763;27;61984;-76
2022/06/01 14:21:18;;;;;;;;;0.00;0.00;;;;;;;;5082863;27;63793;-76
2022/06/01 14:23:43;;;;;;;;;3.00;1.00;;;;;;;;5092438;27;61995;-77
2022/06/01 14:28:52;;;;;;;;;0.67;0.00;;;;;;;;5100955;27;61890;-76
2022/06/01 14:31:37;;;;;;;;;0.33;0.33;;;;;;;;5102513;27;61889;-76
2022/06/01 14:34:04;;;;;;;;;0.00;0.00;;;;;;;;5071599;27;61955;-76
2022/06/01 14:36:30;;;;;;;;;0.00;0.00;;;;;;;;5102751;27;62021;-76
2022/06/01 14:38:55;;;;;;;;;1.00;0.00;;;;;;;;5103611;27;62160;-76
2022/06/01 14:41:27;;;;;;;;;0.00;0.00;;;;;;;;5102117;27;61992;-76
2022/06/01 14:43:53;;;;;;;;;0.00;0.00;;;;;;;;5103310;27;61875;-77
2022/06/01 14:46:18;;;;;;;;;0.00;0.00;;;;;;;;5102976;27;61859;-76
2022/06/01 14:48:43;;;;;;;;;0.00;0.00;;;;;;;;5103768;27;61697;-76
2022/06/01 14:51:11;;;;;;;;;0.00;0.00;;;;;;;;5101887;27;62498;-76
2022/06/01 14:53:37;;;;;;;;;0.67;0.67;;;;;;;;5102369;27;62242;-76
2022/06/01 14:56:03;;;;;;;;;0.67;0.67;;;;;;;;5084390;27;61748;-76
2022/06/01 14:58:28;;;;;;;;;0.00;0.00;;;;;;;;5102635;27;61741;-76
2022/06/01 15:00:57;;;;;;;;;0.00;0.00;;;;;;;;5102355;27;61880;-76
2022/06/01 15:03:32;;;;;;;;;0.00;0.00;;;;;;;;5102995;27;61751;-76
2022/06/01 15:06:01;;;;;;;;;0.00;0.00;;;;;;;;5083661;27;61854;-76
2022/06/01 15:08:26;;;;;;;;;0.00;0.00;;;;;;;;5102063;27;62030;-76
2022/06/01 15:10:52;;;;;;;;;0.00;0.00;;;;;;;;5083314;27;64102;-76
2022/06/01 15:13:17;;;;;;;;;0.00;0.00;;;;;;;;5102332;27;61894;-76
2022/06/01 15:15:42;;;;;;;;;0.00;0.00;;;;;;;;5102326;27;61792;-76
2022/06/01 15:18:09;;;;;;;;;2.00;0.67;;;;;;;;5102507;27;62013;-76
2022/06/01 15:20:35;;;;;;;;;0.00;0.00;;;;;;;;5082957;27;63930;-76
2022/06/01 15:23:01;;;;;;;;;0.00;0.00;;;;;;;;5083637;27;61755;-76
2022/06/01 15:25:26;;;;;;;;;0.00;0.00;;;;;;;;5102238;27;61823;-85
2022/06/01 15:27:51;;;;;;;;;0.00;0.00;;;;;;;;5101908;27;61939;-84
2022/06/01 15:41:12;;;;;;;;;0.00;0.00;;;;;;;;5101378;27;62616;-85
2022/06/01 15:43:38;;;;;;;;;0.00;0.00;;;;;;;;5102352;27;62058;-85
2022/06/01 15:46:03;;;;;;;;;0.00;0.00;;;;;;;;5083466;27;62093;-85